sensor_id;sensor_type;location;lat;lon;timestamp;P1;durP1;ratioP1;P2;durP2;ratioP2
82938;SDS011;72714;52.744;4.900;2024-03-08T00:00:29;37.07;;;22.83;;
82938;SDS011;72714;52.744;4.900;2024-03-08T00:02:57;35.80;;;23.42;;
82938;SDS011;72714;52.744;4.900;2024-03-08T00:05:22;35.33;;;22.92;;
82938;SDS011;72714;52.744;4.900;2024-03-08T00:07:48;33.42;;;21.30;;
82938;SDS011;72714;52.744;4.900;2024-03-08T00:10:14;35.55;;;23.20;;
82938;SDS011;72714;52.744;4.900;2024-03-08T00:12:40;34.93;;;21.70;;
82938;SDS011;72714;52.744;4.900;2024-03-08T00:15:13;36.40;;;23.33;;
82938;SDS011;72714;52.744;4.900;2024-03-08T00:17:40;39.88;;;23.55;;
82938;SDS011;72714;52.744;4.900;2024-03-08T00:20:06;33.85;;;21.65;;
82938;SDS011;72714;52.744;4.900;2024-03-08T00:22:39;36.90;;;23.20;;
82938;SDS011;72714;52.744;4.900;2024-03-08T00:25:06;35.95;;;22.85;;
82938;SDS011;72714;52.744;4.900;2024-03-08T00:27:35;36.15;;;23.02;;
82938;SDS011;72714;52.744;4.900;2024-03-08T00:30:01;37.83;;;22.23;;
82938;SDS011;72714;52.744;4.900;2024-03-08T00:32:27;35.97;;;23.25;;
82938;SDS011;72714;52.744;4.900;2024-03-08T00:34:53;35.67;;;22.37;;
82938;SDS011;72714;52.744;4.900;2024-03-08T00:37:22;36.40;;;22.70;;
82938;SDS011;72714;52.744;4.900;2024-03-08T00:39:48;32.50;;;21.75;;
82938;SDS011;72714;52.744;4.900;2024-03-08T00:42:15;36.17;;;22.43;;
82938;SDS011;72714;52.744;4.900;2024-03-08T00:44:44;35.83;;;22.83;;
82938;SDS011;72714;52.744;4.900;2024-03-08T00:47:10;36.57;;;23.57;;
82938;SDS011;72714;52.744;4.900;2024-03-08T00:49:35;36.67;;;22.92;;
82938;SDS011;72714;52.744;4.900;2024-03-08T00:52:04;37.90;;;23.50;;
82938;SDS011;72714;52.744;4.900;2024-03-08T00:54:33;38.70;;;23.83;;
82938;SDS011;72714;52.744;4.900;2024-03-08T00:56:59;37.20;;;22.17;;
82938;SDS011;72714;52.744;4.900;2024-03-08T00:59:28;34.60;;;22.42;;
82938;SDS011;72714;52.744;4.900;2024-03-08T01:01:54;39.50;;;24.17;;
82938;SDS011;72714;52.744;4.900;2024-03-08T01:04:20;37.53;;;22.98;;
82938;SDS011;72714;52.744;4.900;2024-03-08T01:06:46;34.38;;;22.23;;
82938;SDS011;72714;52.744;4.900;2024-03-08T01:09:12;34.60;;;22.30;;
82938;SDS011;72714;52.744;4.900;2024-03-08T01:11:38;35.25;;;23.15;;
82938;SDS011;72714;52.744;4.900;2024-03-08T01:14:05;35.50;;;22.30;;
82938;SDS011;72714;52.744;4.900;2024-03-08T01:16:30;34.95;;;22.95;;
82938;SDS011;72714;52.744;4.900;2024-03-08T01:18:58;35.92;;;22.73;;
82938;SDS011;72714;52.744;4.900;2024-03-08T01:21:24;35.08;;;22.52;;
82938;SDS011;72714;52.744;4.900;2024-03-08T01:23:49;35.63;;;22.80;;
82938;SDS011;72714;52.744;4.900;2024-03-08T01:26:15;35.43;;;22.30;;
82938;SDS011;72714;52.744;4.900;2024-03-08T01:28:41;36.72;;;23.33;;
82938;SDS011;72714;52.744;4.900;2024-03-08T01:31:06;36.60;;;23.13;;
82938;SDS011;72714;52.744;4.900;2024-03-08T01:33:32;34.87;;;22.83;;
82938;SDS011;72714;52.744;4.900;2024-03-08T01:35:58;36.37;;;23.67;;
82938;SDS011;72714;52.744;4.900;2024-03-08T01:38:23;35.80;;;23.13;;
82938;SDS011;72714;52.744;4.900;2024-03-08T01:40:49;35.17;;;22.33;;
82938;SDS011;72714;52.744;4.900;2024-03-08T01:43:20;34.85;;;22.50;;
82938;SDS011;72714;52.744;4.900;2024-03-08T01:45:46;33.90;;;22.47;;
82938;SDS011;72714;52.744;4.900;2024-03-08T01:48:13;39.10;;;23.10;;
82938;SDS011;72714;52.744;4.900;2024-03-08T01:50:42;32.28;;;21.75;;
82938;SDS011;72714;52.744;4.900;2024-03-08T01:53:08;33.92;;;21.85;;
82938;SDS011;72714;52.744;4.900;2024-03-08T01:55:35;35.63;;;23.20;;
82938;SDS011;72714;52.744;4.900;2024-03-08T01:58:02;37.40;;;23.38;;
82938;SDS011;72714;52.744;4.900;2024-03-08T02:00:29;32.93;;;21.87;;
82938;SDS011;72714;52.744;4.900;2024-03-08T02:02:55;34.90;;;22.02;;
82938;SDS011;72714;52.744;4.900;2024-03-08T02:05:21;33.63;;;22.43;;
82938;SDS011;72714;52.744;4.900;2024-03-08T02:07:46;35.42;;;23.20;;
82938;SDS011;72714;52.744;4.900;2024-03-08T02:10:12;32.45;;;21.95;;
82938;SDS011;72714;52.744;4.900;2024-03-08T02:12:38;33.70;;;22.83;;
82938;SDS011;72714;52.744;4.900;2024-03-08T02:15:04;36.20;;;23.38;;
82938;SDS011;72714;52.744;4.900;2024-03-08T02:17:31;34.35;;;22.98;;
82938;SDS011;72714;52.744;4.900;2024-03-08T02:19:58;34.08;;;22.20;;
82938;SDS011;72714;52.744;4.900;2024-03-08T02:22:26;35.63;;;23.42;;
82938;SDS011;72714;52.744;4.900;2024-03-08T02:24:54;35.58;;;22.88;;
82938;SDS011;72714;52.744;4.900;2024-03-08T02:27:24;32.38;;;22.38;;
82938;SDS011;72714;52.744;4.900;2024-03-08T02:29:58;32.63;;;22.50;;
82938;SDS011;72714;52.744;4.900;2024-03-08T02:32:24;33.67;;;22.45;;
82938;SDS011;72714;52.744;4.900;2024-03-08T02:34:50;35.70;;;23.47;;
82938;SDS011;72714;52.744;4.900;2024-03-08T02:37:16;33.50;;;22.37;;
82938;SDS011;72714;52.744;4.900;2024-03-08T02:39:42;34.47;;;23.23;;
82938;SDS011;72714;52.744;4.900;2024-03-08T02:42:08;33.17;;;22.63;;
82938;SDS011;72714;52.744;4.900;2024-03-08T02:44:34;37.33;;;24.67;;
82938;SDS011;72714;52.744;4.900;2024-03-08T02:46:59;35.47;;;23.85;;
82938;SDS011;72714;52.744;4.900;2024-03-08T02:49:25;37.25;;;23.80;;
82938;SDS011;72714;52.744;4.900;2024-03-08T02:51:52;36.67;;;23.13;;
82938;SDS011;72714;52.744;4.900;2024-03-08T02:54:18;36.10;;;24.88;;
82938;SDS011;72714;52.744;4.900;2024-03-08T02:56:44;34.45;;;23.00;;
82938;SDS011;72714;52.744;4.900;2024-03-08T02:59:11;32.83;;;23.00;;
82938;SDS011;72714;52.744;4.900;2024-03-08T03:01:37;34.92;;;22.90;;
82938;SDS011;72714;52.744;4.900;2024-03-08T03:04:03;36.42;;;24.15;;
82938;SDS011;72714;52.744;4.900;2024-03-08T03:06:29;36.03;;;24.15;;
82938;SDS011;72714;52.744;4.900;2024-03-08T03:08:55;35.40;;;24.13;;
82938;SDS011;72714;52.744;4.900;2024-03-08T03:11:22;36.30;;;24.47;;
82938;SDS011;72714;52.744;4.900;2024-03-08T03:13:48;36.70;;;24.58;;
82938;SDS011;72714;52.744;4.900;2024-03-08T03:20:08;37.67;;;24.27;;
82938;SDS011;72714;52.744;4.900;2024-03-08T03:22:47;34.10;;;23.00;;
82938;SDS011;72714;52.744;4.900;2024-03-08T03:25:18;34.17;;;23.90;;
82938;SDS011;72714;52.744;4.900;2024-03-08T03:27:50;38.63;;;24.88;;
82938;SDS011;72714;52.744;4.900;2024-03-08T03:30:57;37.40;;;24.92;;
82938;SDS011;72714;52.744;4.900;2024-03-08T03:33:24;36.83;;;23.58;;
82938;SDS011;72714;52.744;4.900;2024-03-08T03:35:49;37.83;;;25.13;;
82938;SDS011;72714;52.744;4.900;2024-03-08T03:38:17;37.90;;;25.15;;
82938;SDS011;72714;52.744;4.900;2024-03-08T03:40:42;41.22;;;25.35;;
82938;SDS011;72714;52.744;4.900;2024-03-08T03:54:53;35.15;;;24.45;;
82938;SDS011;72714;52.744;4.900;2024-03-08T21:50:34;42.57;;;29.87;;
82938;SDS011;72714;52.744;4.900;2024-03-08T21:53:00;43.70;;;30.15;;
82938;SDS011;72714;52.744;4.900;2024-03-08T21:55:26;45.17;;;30.98;;
82938;SDS011;72714;52.744;4.900;2024-03-08T21:57:52;44.75;;;30.90;;
82938;SDS011;72714;52.744;4.900;2024-03-08T22:00:18;43.03;;;30.65;;
82938;SDS011;72714;52.744;4.900;2024-03-08T22:02:44;44.97;;;30.83;;
82938;SDS011;72714;52.744;4.900;2024-03-08T22:05:14;46.85;;;31.73;;
82938;SDS011;72714;52.744;4.900;2024-03-08T22:07:49;43.38;;;29.75;;
82938;SDS011;72714;52.744;4.900;2024-03-08T22:10:15;45.50;;;30.45;;
82938;SDS011;72714;52.744;4.900;2024-03-08T22:12:48;43.72;;;30.55;;
82938;SDS011;72714;52.744;4.900;2024-03-08T22:15:16;42.13;;;30.23;;
82938;SDS011;72714;52.744;4.900;2024-03-08T22:17:43;48.70;;;32.35;;
82938;SDS011;72714;52.744;4.900;2024-03-08T22:20:10;44.97;;;31.13;;
82938;SDS011;72714;52.744;4.900;2024-03-08T22:22:50;47.63;;;31.83;;
82938;SDS011;72714;52.744;4.900;2024-03-08T22:25:16;48.30;;;32.97;;
82938;SDS011;72714;52.744;4.900;2024-03-08T22:27:43;45.97;;;30.77;;
82938;SDS011;72714;52.744;4.900;2024-03-08T22:30:12;45.50;;;31.92;;
82938;SDS011;72714;52.744;4.900;2024-03-08T22:32:41;43.80;;;31.13;;
82938;SDS011;72714;52.744;4.900;2024-03-08T22:35:09;46.10;;;32.07;;
82938;SDS011;72714;52.744;4.900;2024-03-08T22:37:35;50.30;;;33.87;;
82938;SDS011;72714;52.744;4.900;2024-03-08T22:40:02;46.40;;;32.50;;
82938;SDS011;72714;52.744;4.900;2024-03-08T22:42:41;47.92;;;32.90;;
82938;SDS011;72714;52.744;4.900;2024-03-08T22:45:10;48.25;;;32.45;;
82938;SDS011;72714;52.744;4.900;2024-03-08T22:47:38;47.60;;;32.67;;
82938;SDS011;72714;52.744;4.900;2024-03-08T22:50:09;48.30;;;32.53;;
82938;SDS011;72714;52.744;4.900;2024-03-08T22:52:37;48.40;;;34.05;;
82938;SDS011;72714;52.744;4.900;2024-03-08T22:55:05;49.43;;;33.10;;
82938;SDS011;72714;52.744;4.900;2024-03-08T22:57:34;47.97;;;32.22;;
82938;SDS011;72714;52.744;4.900;2024-03-08T23:00:12;47.75;;;33.28;;
82938;SDS011;72714;52.744;4.900;2024-03-08T23:02:53;51.25;;;34.42;;
82938;SDS011;72714;52.744;4.900;2024-03-08T23:05:20;47.88;;;33.60;;
82938;SDS011;72714;52.744;4.900;2024-03-08T23:07:47;49.13;;;33.85;;
82938;SDS011;72714;52.744;4.900;2024-03-08T23:10:13;49.03;;;33.45;;
82938;SDS011;72714;52.744;4.900;2024-03-08T23:12:40;48.13;;;33.50;;
82938;SDS011;72714;52.744;4.900;2024-03-08T23:15:06;49.65;;;33.22;;
82938;SDS011;72714;52.744;4.900;2024-03-08T23:17:45;52.63;;;34.63;;
82938;SDS011;72714;52.744;4.900;2024-03-08T23:20:14;51.88;;;33.85;;
82938;SDS011;72714;52.744;4.900;2024-03-08T23:22:44;47.05;;;32.80;;
82938;SDS011;72714;52.744;4.900;2024-03-08T23:27:51;47.83;;;32.80;;
82938;SDS011;72714;52.744;4.900;2024-03-08T23:30:18;47.97;;;33.75;;
82938;SDS011;72714;52.744;4.900;2024-03-08T23:32:48;46.95;;;33.33;;
82938;SDS011;72714;52.744;4.900;2024-03-08T23:35:14;50.23;;;33.40;;
82938;SDS011;72714;52.744;4.900;2024-03-08T23:37:40;54.75;;;36.90;;
82938;SDS011;72714;52.744;4.900;2024-03-08T23:40:10;48.35;;;33.20;;
82938;SDS011;72714;52.744;4.900;2024-03-08T23:42:40;52.65;;;34.03;;
82938;SDS011;72714;52.744;4.900;2024-03-08T23:45:07;53.22;;;35.80;;
82938;SDS011;72714;52.744;4.900;2024-03-08T23:47:49;48.85;;;33.28;;
82938;SDS011;72714;52.744;4.900;2024-03-08T23:50:18;50.23;;;34.17;;
82938;SDS011;72714;52.744;4.900;2024-03-08T23:52:48;50.83;;;34.35;;
82938;SDS011;72714;52.744;4.900;2024-03-08T23:55:15;53.10;;;35.35;;
